createdAt,value
2022-09-14T00:01:24.167Z,5.50
2022-09-14T00:03:52.489Z,5.53
2022-09-14T00:06:19.057Z,6.03
2022-09-14T00:08:45.539Z,5.57
2022-09-14T00:11:14.147Z,6.63
2022-09-14T00:13:42.145Z,6.13
2022-09-14T00:16:12.756Z,5.90
2022-09-14T00:18:39.220Z,5.83
2022-09-14T00:21:06.884Z,6.07
2022-09-14T00:23:37.348Z,6.70
2022-09-14T00:26:08.731Z,5.80
2022-09-14T00:28:39.102Z,5.90
2022-09-14T00:31:06.315Z,5.50
2022-09-14T00:33:34.190Z,5.97
2022-09-14T00:36:11.417Z,5.60
2022-09-14T00:38:38.046Z,5.40
2022-09-14T00:41:06.720Z,6.80
2022-09-14T00:43:33.558Z,5.33
2022-09-14T00:46:01.647Z,6.63
2022-09-14T00:48:29.819Z,5.67
2022-09-14T00:50:56.302Z,6.67
2022-09-14T00:53:22.822Z,7.10
2022-09-14T00:55:49.340Z,6.13
2022-09-14T00:58:15.794Z,6.00
2022-09-14T01:00:42.336Z,6.40
2022-09-14T01:03:08.774Z,5.60
2022-09-14T01:05:42.366Z,5.93
2022-09-14T01:08:27.670Z,6.70
2022-09-14T01:10:57.934Z,5.87
2022-09-14T01:13:32.790Z,7.20
2022-09-14T01:16:11.719Z,6.97
2022-09-14T01:18:41.269Z,6.00
2022-09-14T01:21:13.613Z,6.70
2022-09-14T01:23:47.533Z,6.37
2022-09-14T01:26:24.647Z,6.70
2022-09-14T01:29:11.347Z,6.87
2022-09-14T01:31:37.855Z,7.33
2022-09-14T01:34:16.741Z,8.00
2022-09-14T01:36:45.534Z,6.90
2022-09-14T01:39:12.158Z,6.80
2022-09-14T01:41:39.853Z,6.50
2022-09-14T01:44:09.590Z,6.60
2022-09-14T01:46:39.859Z,7.23
2022-09-14T01:49:21.718Z,6.70
2022-09-14T01:52:00.694Z,6.13
2022-09-14T01:54:35.852Z,6.83
2022-09-14T01:57:12.772Z,7.70
2022-09-14T01:59:40.693Z,7.30
2022-09-14T02:02:16.333Z,7.60
2022-09-14T02:04:47.226Z,7.47
2022-09-14T02:07:14.195Z,7.47
2022-09-14T02:09:40.765Z,7.97
2022-09-14T02:12:07.446Z,7.70
2022-09-14T02:14:34.305Z,6.77
2022-09-14T02:17:00.797Z,7.40
2022-09-14T02:19:31.242Z,7.43
2022-09-14T02:21:57.691Z,7.00
2022-09-14T02:24:24.146Z,7.60
2022-09-14T02:26:52.704Z,8.10
2022-09-14T02:29:19.193Z,7.27
2022-09-14T02:32:03.949Z,6.70
2022-09-14T02:34:34.286Z,6.90
2022-09-14T02:37:04.726Z,7.57
2022-09-14T02:39:37.404Z,6.80
2022-09-14T02:42:10.366Z,7.17
2022-09-14T02:44:55.601Z,7.87
2022-09-14T02:47:40.581Z,7.73
2022-09-14T02:50:16.296Z,7.77
2022-09-14T02:52:51.449Z,9.77
2022-09-14T02:55:22.962Z,9.00
2022-09-14T02:58:06.581Z,8.83
2022-09-14T03:00:36.810Z,8.87
2022-09-14T03:03:04.781Z,9.20
2022-09-14T03:05:31.352Z,9.30
2022-09-14T03:07:57.784Z,9.47
2022-09-14T03:10:24.354Z,8.57
2022-09-14T03:12:50.769Z,9.40
2022-09-14T03:15:17.317Z,9.20
2022-09-14T03:17:50.291Z,7.30
2022-09-14T03:20:21.493Z,10.40
2022-09-14T03:22:48.370Z,10.40
2022-09-14T03:25:15.021Z,9.00
2022-09-14T03:27:41.996Z,10.23
2022-09-14T03:30:08.805Z,8.53
2022-09-14T03:32:35.259Z,9.20
2022-09-14T03:35:02.080Z,10.20
2022-09-14T03:37:28.583Z,10.23
2022-09-14T03:39:55.119Z,9.30
2022-09-14T03:42:21.593Z,9.63
2022-09-14T03:44:48.033Z,9.73
2022-09-14T03:47:14.496Z,11.07
2022-09-14T03:49:40.980Z,9.60
2022-09-14T03:52:07.750Z,8.90
2022-09-14T03:54:34.185Z,9.10
2022-09-14T03:57:01.125Z,8.73
2022-09-14T03:59:27.656Z,11.10
2022-09-14T04:01:54.139Z,9.87
2022-09-14T04:04:20.642Z,10.57
2022-09-14T04:06:47.615Z,10.50
2022-09-14T04:09:14.066Z,10.53
2022-09-14T04:11:40.470Z,9.20
2022-09-14T04:14:08.403Z,8.43
2022-09-14T04:16:34.886Z,9.20
2022-09-14T04:19:01.422Z,10.17
2022-09-14T04:21:27.994Z,9.60
2022-09-14T04:24:15.179Z,9.80
2022-09-14T04:26:42.901Z,10.60
2022-09-14T04:29:10.559Z,9.57
2022-09-14T04:31:37.149Z,10.57
2022-09-14T04:34:03.801Z,10.00
2022-09-14T04:36:31.276Z,9.53
2022-09-14T04:39:02.148Z,10.73
2022-09-14T04:41:29.322Z,10.00
2022-09-14T04:43:56.321Z,11.00
2022-09-14T04:46:23.955Z,12.43
2022-09-14T04:48:50.563Z,12.00
2022-09-14T04:51:21.757Z,12.57
2022-09-14T04:53:50.331Z,12.90
2022-09-14T04:56:17.514Z,14.43
2022-09-14T04:58:51.665Z,12.40
2022-09-14T05:01:37.883Z,12.63
2022-09-14T05:04:04.838Z,12.17
2022-09-14T05:06:32.342Z,11.53
2022-09-14T05:09:00.007Z,12.87
2022-09-14T05:11:30.588Z,12.00
2022-09-14T05:13:57.625Z,12.50
2022-09-14T05:16:28.260Z,12.10
2022-09-14T05:18:55.687Z,13.33
2022-09-14T05:21:22.827Z,12.10
2022-09-14T05:23:53.272Z,10.23
2022-09-14T05:26:19.793Z,12.87
2022-09-14T05:28:49.694Z,11.27
2022-09-14T05:31:17.130Z,11.70
2022-09-14T05:33:43.729Z,12.27
2022-09-14T05:36:10.397Z,13.70
2022-09-14T05:38:38.060Z,13.10
2022-09-14T05:41:05.318Z,13.40
2022-09-14T05:43:31.900Z,13.07
2022-09-14T05:46:10.178Z,12.60
2022-09-14T05:48:37.526Z,12.77
2022-09-14T05:51:05.621Z,12.77
2022-09-14T05:53:32.078Z,12.37
2022-09-14T05:56:08.466Z,14.10
2022-09-14T05:58:35.714Z,12.60
2022-09-14T06:01:15.879Z,14.47
2022-09-14T06:03:42.886Z,14.47
2022-09-14T06:06:10.108Z,12.60
2022-09-14T06:08:37.296Z,12.73
2022-09-14T06:11:08.081Z,13.13
2022-09-14T06:13:34.567Z,13.23
2022-09-14T06:16:01.697Z,12.60
2022-09-14T06:18:29.778Z,13.53
2022-09-14T06:20:56.226Z,13.67
2022-09-14T06:23:23.225Z,13.60
2022-09-14T06:25:52.341Z,13.07
2022-09-14T06:28:18.764Z,14.50
2022-09-14T06:30:45.254Z,15.37
2022-09-14T06:33:11.817Z,14.10
2022-09-14T06:35:38.298Z,14.60
2022-09-14T06:38:04.937Z,14.40
2022-09-14T06:40:31.503Z,14.27
2022-09-14T06:43:02.191Z,14.37
2022-09-14T06:45:32.475Z,15.53
2022-09-14T06:47:59.046Z,14.03
2022-09-14T06:50:25.536Z,14.70
2022-09-14T06:52:52.071Z,14.27
2022-09-14T06:55:18.515Z,14.87
2022-09-14T06:57:47.137Z,13.60
2022-09-14T07:00:14.072Z,15.07
2022-09-14T07:02:41.099Z,13.70
2022-09-14T07:05:07.958Z,16.43
2022-09-14T07:07:34.383Z,15.87
2022-09-14T07:10:00.895Z,15.30
2022-09-14T07:12:28.037Z,15.27
2022-09-14T07:14:54.497Z,14.57
2022-09-14T07:17:20.911Z,14.90
2022-09-14T07:19:47.386Z,15.70
2022-09-14T07:22:13.858Z,15.40
2022-09-14T07:24:40.281Z,16.23
2022-09-14T07:27:06.701Z,15.03
2022-09-14T07:29:33.225Z,15.67
2022-09-14T07:31:59.720Z,14.40
2022-09-14T07:34:26.299Z,14.57
2022-09-14T07:36:52.737Z,13.07
2022-09-14T07:39:19.236Z,13.27
2022-09-14T07:41:45.945Z,12.20
2022-09-14T07:44:16.047Z,13.30
2022-09-14T07:46:43.254Z,13.50
2022-09-14T07:49:10.635Z,13.83
2022-09-14T07:51:37.576Z,15.20
2022-09-14T07:54:05.302Z,15.53
2022-09-14T07:56:31.878Z,14.17
2022-09-14T07:59:17.248Z,12.97
2022-09-14T08:01:46.772Z,15.70
2022-09-14T08:04:13.405Z,14.43
2022-09-14T08:06:40.599Z,14.70
2022-09-14T08:09:08.569Z,12.97
2022-09-14T08:11:35.718Z,14.47
2022-09-14T08:14:03.948Z,12.73
2022-09-14T08:16:31.874Z,13.53
2022-09-14T08:19:02.418Z,14.57
2022-09-14T08:21:29.997Z,13.93
2022-09-14T08:23:57.870Z,14.23
2022-09-14T08:26:25.095Z,13.43
2022-09-14T08:28:51.967Z,13.20
2022-09-14T08:31:21.050Z,13.47
2022-09-14T08:33:51.769Z,12.47
2022-09-14T08:36:19.631Z,12.87
2022-09-14T08:38:46.201Z,12.57
2022-09-14T08:41:24.863Z,11.97
2022-09-14T08:43:51.598Z,9.50
2022-09-14T08:46:26.212Z,10.80
2022-09-14T08:48:52.778Z,11.70
2022-09-14T08:51:19.226Z,10.83
2022-09-14T08:53:45.784Z,9.93
2022-09-14T08:56:12.218Z,9.57
2022-09-14T08:58:53.875Z,9.60
2022-09-14T09:01:28.606Z,9.43
2022-09-14T09:04:01.355Z,10.00
2022-09-14T09:06:27.741Z,7.87
2022-09-14T09:08:57.187Z,9.60
2022-09-14T09:11:26.372Z,8.10
2022-09-14T09:13:53.059Z,8.70
2022-09-14T09:16:21.925Z,8.03
2022-09-14T09:18:59.529Z,9.37
2022-09-14T09:21:29.063Z,8.50
2022-09-14T09:23:58.894Z,8.73
2022-09-14T09:26:27.611Z,8.47
2022-09-14T09:29:01.554Z,8.50
2022-09-14T09:31:33.704Z,7.70
2022-09-14T09:34:27.534Z,7.90
2022-09-14T09:37:06.407Z,8.20
2022-09-14T09:39:33.457Z,9.23
2022-09-14T09:42:20.388Z,7.37
2022-09-14T09:45:07.631Z,8.17
2022-09-14T09:47:34.102Z,7.90
2022-09-14T09:50:02.477Z,8.00
2022-09-14T09:52:29.643Z,8.77
2022-09-14T09:54:56.727Z,8.90
2022-09-14T09:57:28.042Z,8.57
2022-09-14T10:00:08.805Z,13.30
2022-09-14T10:02:38.817Z,12.80
2022-09-14T10:05:18.031Z,9.90
2022-09-14T10:07:50.647Z,14.10
2022-09-14T10:10:18.770Z,11.93
2022-09-14T10:12:46.415Z,8.30
2022-09-14T10:15:20.054Z,8.70
2022-09-14T10:18:01.591Z,7.90
2022-09-14T10:20:28.221Z,7.43
2022-09-14T10:22:54.677Z,6.37
2022-09-14T10:25:25.689Z,8.80
2022-09-14T10:27:55.112Z,16.40
2022-09-14T10:30:21.528Z,12.40
2022-09-14T10:33:00.294Z,10.93
2022-09-14T10:35:42.066Z,10.13
2022-09-14T10:38:35.113Z,12.50
2022-09-14T10:41:09.329Z,8.10
2022-09-14T10:43:35.790Z,9.03
2022-09-14T10:46:04.581Z,9.60
2022-09-14T10:48:31.041Z,8.63
2022-09-14T10:51:16.538Z,8.03
2022-09-14T10:53:54.265Z,7.70
2022-09-14T10:56:26.242Z,7.07
2022-09-14T10:58:52.745Z,7.13
2022-09-14T11:01:31.746Z,8.67
2022-09-14T11:03:58.214Z,8.37
2022-09-14T11:06:37.007Z,7.97
2022-09-14T11:09:10.920Z,6.20
2022-09-14T11:11:49.785Z,5.23
2022-09-14T11:14:25.462Z,5.60
2022-09-14T11:17:10.201Z,5.83
2022-09-14T11:20:03.085Z,5.67
2022-09-14T11:22:48.389Z,4.20
2022-09-14T11:25:23.869Z,4.27
2022-09-14T11:27:52.443Z,4.23
2022-09-14T11:30:20.408Z,4.30
2022-09-14T11:33:03.177Z,4.40
2022-09-14T11:35:32.974Z,4.83
2022-09-14T11:38:01.299Z,4.57
2022-09-14T11:40:34.460Z,4.20
2022-09-14T11:43:00.994Z,6.03
2022-09-14T11:45:27.461Z,4.60
2022-09-14T11:48:12.502Z,7.20
2022-09-14T11:50:53.815Z,5.43
2022-09-14T11:53:20.942Z,5.03
2022-09-14T11:55:48.776Z,7.27
2022-09-14T11:58:33.522Z,6.90
2022-09-14T12:01:00.823Z,7.27
2022-09-14T12:03:52.157Z,8.70
2022-09-14T12:06:31.009Z,9.53
2022-09-14T12:09:12.820Z,7.20
2022-09-14T12:11:39.336Z,8.03
2022-09-14T12:14:24.200Z,7.10
2022-09-14T12:17:28.964Z,7.97
2022-09-14T12:19:59.288Z,7.97
2022-09-14T12:22:33.014Z,6.50
2022-09-14T12:25:08.633Z,7.50
2022-09-14T12:27:36.683Z,6.50
2022-09-14T12:30:21.923Z,7.60
2022-09-14T12:32:48.503Z,8.43
2022-09-14T12:35:34.489Z,7.53
2022-09-14T12:38:20.924Z,8.07
2022-09-14T12:40:47.443Z,8.40
2022-09-14T12:43:32.018Z,7.50
2022-09-14T12:46:08.162Z,7.73
2022-09-14T12:48:54.281Z,9.97
2022-09-14T12:51:26.795Z,7.97
2022-09-14T12:54:07.424Z,9.77
2022-09-14T12:56:37.007Z,7.47
2022-09-14T12:59:10.146Z,7.40
2022-09-14T13:01:49.187Z,7.70
2022-09-14T13:04:21.991Z,7.13
2022-09-14T13:06:48.737Z,7.00
2022-09-14T13:09:22.722Z,7.57
2022-09-14T13:11:53.451Z,7.57
2022-09-14T13:14:20.145Z,7.80
2022-09-14T13:16:49.017Z,6.63
2022-09-14T13:19:24.081Z,6.77
2022-09-14T13:21:52.193Z,6.80
2022-09-14T13:24:21.773Z,7.27
2022-09-14T13:26:48.483Z,6.67
2022-09-14T13:29:15.948Z,6.70
2022-09-14T13:31:44.304Z,6.83
2022-09-14T13:34:40.194Z,6.30
2022-09-14T13:37:07.218Z,6.17
2022-09-14T13:39:35.735Z,7.10
2022-09-14T13:42:02.652Z,6.43
2022-09-14T13:44:36.682Z,6.43
2022-09-14T13:47:04.629Z,7.50
2022-09-14T13:49:31.553Z,7.73
2022-09-14T13:52:16.912Z,7.20
2022-09-14T13:54:43.687Z,6.17
2022-09-14T13:57:15.180Z,6.07
2022-09-14T14:00:00.521Z,5.40
2022-09-14T14:02:27.612Z,4.70
2022-09-14T14:04:54.204Z,5.90
2022-09-14T14:07:26.426Z,5.37
2022-09-14T14:09:54.336Z,5.10
2022-09-14T14:12:46.794Z,5.80
2022-09-14T14:15:16.643Z,5.90
2022-09-14T14:17:43.167Z,5.87
2022-09-14T14:20:32.902Z,5.80
2022-09-14T14:23:08.531Z,9.60
2022-09-14T14:25:40.989Z,7.70
2022-09-14T14:28:19.105Z,6.50
2022-09-14T14:30:45.726Z,5.20
2022-09-14T14:33:13.822Z,6.07
2022-09-14T14:35:41.521Z,5.80
2022-09-14T14:38:08.030Z,6.97
2022-09-14T14:40:34.999Z,7.10
2022-09-14T14:43:04.158Z,6.97
2022-09-14T14:45:35.959Z,6.73
2022-09-14T14:48:03.252Z,7.30
2022-09-14T14:50:31.276Z,6.30
2022-09-14T14:52:58.562Z,7.13
2022-09-14T14:55:25.736Z,5.57
2022-09-14T14:57:52.276Z,5.70
2022-09-14T15:00:20.280Z,5.90
2022-09-14T15:02:46.841Z,6.90
2022-09-14T15:05:13.542Z,6.10
2022-09-14T15:07:40.088Z,7.77
2022-09-14T15:10:07.187Z,6.43
2022-09-14T15:12:34.321Z,6.37
2022-09-14T15:15:01.378Z,6.90
2022-09-14T15:17:27.934Z,6.47
2022-09-14T15:19:54.420Z,6.40
2022-09-14T15:22:21.033Z,7.33
2022-09-14T15:24:47.547Z,6.90
2022-09-14T15:27:14.763Z,7.30
2022-09-14T15:29:41.271Z,7.10
2022-09-14T15:32:07.736Z,8.40
2022-09-14T15:34:34.319Z,8.33
2022-09-14T15:37:00.824Z,11.43
2022-09-14T15:39:29.552Z,15.00
2022-09-14T15:41:56.182Z,14.47
2022-09-14T15:44:22.663Z,12.43
2022-09-14T15:46:49.326Z,11.87
2022-09-14T15:49:20.611Z,12.33
2022-09-14T15:51:47.866Z,12.97
2022-09-14T15:54:14.714Z,11.10
2022-09-14T15:56:41.834Z,10.50
2022-09-14T15:59:09.130Z,10.07
2022-09-14T16:01:36.288Z,11.90
2022-09-14T16:04:05.715Z,10.30
2022-09-14T16:06:34.282Z,10.23
2022-09-14T16:09:01.750Z,13.07
2022-09-14T16:11:28.428Z,12.67
2022-09-14T16:13:54.931Z,12.33
2022-09-14T16:16:21.664Z,11.50
2022-09-14T16:18:50.084Z,11.57
2022-09-14T16:21:21.411Z,10.70
2022-09-14T16:23:49.678Z,10.00
2022-09-14T16:26:17.612Z,10.90
2022-09-14T16:28:45.191Z,12.17
2022-09-14T16:31:13.599Z,12.93
2022-09-14T16:33:43.062Z,12.13
2022-09-14T16:36:10.935Z,12.13
2022-09-14T16:38:37.739Z,13.33
2022-09-14T16:41:04.838Z,12.30
2022-09-14T16:43:31.914Z,12.50
2022-09-14T16:46:07.968Z,12.43
2022-09-14T16:48:35.284Z,12.33
2022-09-14T16:51:02.413Z,23.60
2022-09-14T16:53:30.334Z,60.47
2022-09-14T16:56:00.833Z,48.00
2022-09-14T16:58:27.324Z,104.23
2022-09-14T17:00:53.785Z,51.10
2022-09-14T17:03:20.451Z,29.27
2022-09-14T17:05:46.956Z,19.87
2022-09-14T17:08:13.462Z,20.83
2022-09-14T17:10:39.932Z,22.20
2022-09-14T17:13:06.399Z,23.27
2022-09-14T17:15:32.915Z,17.67
2022-09-14T17:17:59.363Z,32.17
2022-09-14T17:20:25.923Z,16.97
2022-09-14T17:22:52.625Z,11.87
2022-09-14T17:25:19.682Z,12.60
2022-09-14T17:27:46.151Z,11.60
2022-09-14T17:30:13.110Z,12.00
2022-09-14T17:32:39.795Z,12.60
2022-09-14T17:35:06.617Z,11.33
2022-09-14T17:37:33.188Z,9.50
2022-09-14T17:39:59.782Z,10.00
2022-09-14T17:42:26.895Z,11.83
2022-09-14T17:44:53.362Z,10.10
2022-09-14T17:47:19.864Z,8.80
2022-09-14T17:49:46.341Z,10.70
2022-09-14T17:52:12.838Z,10.53
2022-09-14T17:54:39.329Z,8.50
2022-09-14T17:57:06.349Z,9.63
2022-09-14T17:59:32.838Z,16.10
2022-09-14T18:01:59.534Z,9.27
2022-09-14T18:04:26.088Z,10.57
2022-09-14T18:06:52.527Z,9.17
2022-09-14T18:09:20.737Z,11.53
2022-09-14T18:11:47.671Z,10.17
2022-09-14T18:14:14.874Z,6.40
2022-09-14T18:16:41.852Z,7.80
2022-09-14T18:19:08.856Z,6.00
2022-09-14T18:21:35.366Z,5.87
2022-09-14T18:24:02.087Z,6.10
2022-09-14T18:26:28.619Z,4.97
2022-09-14T18:28:56.215Z,4.97
2022-09-14T18:31:23.284Z,4.63
2022-09-14T18:33:52.034Z,5.43
2022-09-14T18:36:19.467Z,3.60
2022-09-14T18:38:46.298Z,3.60
2022-09-14T18:41:13.310Z,3.87
2022-09-14T18:43:42.627Z,3.50
2022-09-14T18:46:09.207Z,4.13
2022-09-14T18:48:35.897Z,3.20
2022-09-14T18:51:03.870Z,3.07
2022-09-14T18:53:30.548Z,4.60
2022-09-14T18:56:10.980Z,3.00
2022-09-14T18:58:38.829Z,3.00
2022-09-14T19:01:05.880Z,3.17
2022-09-14T19:03:32.962Z,5.23
2022-09-14T19:06:04.206Z,2.60
2022-09-14T19:08:30.725Z,3.73
2022-09-14T19:10:57.367Z,3.33
2022-09-14T19:13:23.934Z,3.07
2022-09-14T19:15:50.446Z,3.20
2022-09-14T19:18:17.054Z,3.10
2022-09-14T19:21:05.373Z,2.33
2022-09-14T19:23:33.164Z,2.70
2022-09-14T19:26:10.751Z,2.30
2022-09-14T19:28:37.575Z,2.80
2022-09-14T19:31:05.374Z,2.80
2022-09-14T19:33:32.008Z,2.57
2022-09-14T19:36:02.232Z,2.67
2022-09-14T19:38:28.803Z,2.50
2022-09-14T19:40:55.442Z,3.20
2022-09-14T19:43:21.986Z,2.90
2022-09-14T19:45:48.971Z,2.53
2022-09-14T19:48:15.535Z,2.63
2022-09-14T19:50:42.253Z,4.20
2022-09-14T19:53:08.784Z,2.83
2022-09-14T19:55:35.362Z,2.80
2022-09-14T19:58:01.894Z,2.33
2022-09-14T20:00:28.341Z,2.90
2022-09-14T20:02:54.846Z,2.40
2022-09-14T20:05:21.401Z,2.20
2022-09-14T20:07:47.905Z,1.90
2022-09-14T20:10:14.411Z,2.40
2022-09-14T20:12:40.922Z,2.90
2022-09-14T20:15:07.534Z,2.17
2022-09-14T20:17:33.988Z,2.73
2022-09-14T20:20:00.451Z,2.77
2022-09-14T20:22:26.902Z,2.10
2022-09-14T20:24:53.577Z,3.07
2022-09-14T20:27:20.019Z,2.07
2022-09-14T20:29:46.539Z,2.73
2022-09-14T20:32:14.660Z,2.73
2022-09-14T20:34:43.735Z,2.40
2022-09-14T20:37:10.168Z,2.40
2022-09-14T20:39:38.236Z,1.97
2022-09-14T20:42:04.807Z,2.87
2022-09-14T20:44:31.354Z,2.20
2022-09-14T20:46:57.813Z,2.53
2022-09-14T20:49:24.328Z,2.20
2022-09-14T20:51:52.646Z,2.40
2022-09-14T20:54:19.389Z,2.60
2022-09-14T20:56:46.389Z,2.47
2022-09-14T20:59:17.913Z,2.80
2022-09-14T21:01:45.722Z,2.17
2022-09-14T21:04:13.739Z,3.03
2022-09-14T21:06:41.503Z,2.50
2022-09-14T21:09:08.836Z,2.83
2022-09-14T21:11:35.441Z,3.00
2022-09-14T21:14:02.092Z,2.70
2022-09-14T21:16:33.546Z,2.73
2022-09-14T21:19:01.323Z,2.10
2022-09-14T21:21:27.966Z,2.27
2022-09-14T21:23:55.800Z,2.73
2022-09-14T21:26:22.665Z,2.50
2022-09-14T21:28:49.197Z,2.23
2022-09-14T21:31:16.999Z,2.90
2022-09-14T21:33:45.237Z,2.67
2022-09-14T21:36:12.773Z,2.80
2022-09-14T21:38:39.285Z,3.00
2022-09-14T21:41:07.553Z,2.70
2022-09-14T21:43:40.350Z,2.70
2022-09-14T21:46:07.621Z,2.37
2022-09-14T21:48:34.512Z,2.50
2022-09-14T21:51:02.129Z,2.80
2022-09-14T21:53:28.621Z,2.30
2022-09-14T21:55:55.037Z,3.07
2022-09-14T21:58:21.514Z,2.67
2022-09-14T22:00:48.044Z,2.20
2022-09-14T22:03:14.472Z,2.97
2022-09-14T22:05:40.947Z,3.00
2022-09-14T22:08:07.384Z,3.13
2022-09-14T22:10:34.619Z,3.00
2022-09-14T22:13:01.057Z,2.10
2022-09-14T22:15:31.953Z,2.60
2022-09-14T22:18:02.140Z,2.97
2022-09-14T22:20:28.943Z,2.77
2022-09-14T22:22:55.398Z,3.87
2022-09-14T22:25:24.971Z,3.13
2022-09-14T22:27:51.961Z,2.53
2022-09-14T22:30:18.902Z,2.93
2022-09-14T22:32:45.331Z,2.97
2022-09-14T22:35:12.334Z,2.80
2022-09-14T22:37:38.770Z,2.67
2022-09-14T22:40:05.629Z,3.73
2022-09-14T22:42:32.462Z,3.00
2022-09-14T22:44:58.886Z,3.33
2022-09-14T22:47:25.386Z,3.20
2022-09-14T22:49:52.779Z,3.40
2022-09-14T22:52:19.281Z,2.90
2022-09-14T22:54:45.997Z,3.83
2022-09-14T22:57:12.441Z,2.63
2022-09-14T22:59:38.907Z,3.47
2022-09-14T23:02:05.429Z,4.00
2022-09-14T23:04:32.629Z,3.60
2022-09-14T23:06:59.941Z,3.10
2022-09-14T23:09:26.470Z,2.83
2022-09-14T23:11:52.975Z,2.70
2022-09-14T23:14:19.404Z,3.80
2022-09-14T23:16:46.066Z,4.37
2022-09-14T23:19:14.715Z,3.13
2022-09-14T23:21:41.147Z,3.60
2022-09-14T23:24:07.921Z,3.00
2022-09-14T23:26:34.493Z,3.33
2022-09-14T23:29:03.016Z,3.63
2022-09-14T23:31:30.074Z,3.70
2022-09-14T23:33:57.470Z,3.67
2022-09-14T23:36:24.235Z,3.70
2022-09-14T23:38:51.151Z,3.97
2022-09-14T23:41:20.803Z,3.80
2022-09-14T23:43:47.702Z,3.00
2022-09-14T23:46:14.885Z,3.90
2022-09-14T23:48:41.429Z,3.83
2022-09-14T23:51:08.822Z,3.50
2022-09-14T23:53:35.501Z,2.97
2022-09-14T23:56:02.110Z,4.20
2022-09-14T23:58:28.614Z,4.27
